sensor_id;sensor_type;location;lat;lon;timestamp;pressure;altitude;pressure_sealevel;temperature;humidity
74065;BME280;62421;51.412;5.432;2024-02-21T00:01:24;102141.22;;;8.01;100.00
74065;BME280;62421;51.412;5.432;2024-02-21T00:03:49;102133.25;;;7.99;100.00
74065;BME280;62421;51.412;5.432;2024-02-21T00:06:15;102135.91;;;7.99;100.00
74065;BME280;62421;51.412;5.432;2024-02-21T00:08:40;102137.69;;;8.00;100.00
74065;BME280;62421;51.412;5.432;2024-02-21T00:11:05;102140.41;;;7.99;100.00
74065;BME280;62421;51.412;5.432;2024-02-21T00:13:31;102130.69;;;7.96;100.00
74065;BME280;62421;51.412;5.432;2024-02-21T00:15:56;102136.00;;;7.98;100.00
74065;BME280;62421;51.412;5.432;2024-02-21T00:18:21;102143.13;;;7.97;100.00
74065;BME280;62421;51.412;5.432;2024-02-21T00:20:47;102151.38;;;7.91;100.00
74065;BME280;62421;51.412;5.432;2024-02-21T00:23:12;102148.72;;;7.91;100.00
74065;BME280;62421;51.412;5.432;2024-02-21T00:25:37;102138.94;;;7.90;100.00
74065;BME280;62421;51.412;5.432;2024-02-21T00:28:03;102138.91;;;7.92;100.00
74065;BME280;62421;51.412;5.432;2024-02-21T00:30:28;102141.44;;;7.95;100.00
74065;BME280;62421;51.412;5.432;2024-02-21T00:32:54;102139.72;;;7.94;100.00
74065;BME280;62421;51.412;5.432;2024-02-21T00:35:19;102129.94;;;7.93;100.00
74065;BME280;62421;51.412;5.432;2024-02-21T00:37:44;102123.59;;;7.95;100.00
74065;BME280;62421;51.412;5.432;2024-02-21T00:40:10;102113.06;;;7.91;100.00
74065;BME280;62421;51.412;5.432;2024-02-21T00:42:36;102105.38;;;7.83;100.00
74065;BME280;62421;51.412;5.432;2024-02-21T00:45:01;102105.50;;;7.78;100.00
74065;BME280;62421;51.412;5.432;2024-02-21T00:47:26;102103.78;;;7.77;100.00
74065;BME280;62421;51.412;5.432;2024-02-21T00:49:52;102092.28;;;7.75;100.00
74065;BME280;62421;51.412;5.432;2024-02-21T00:52:17;102083.72;;;7.66;100.00
74065;BME280;62421;51.412;5.432;2024-02-21T00:54:43;102088.50;;;7.57;100.00
74065;BME280;62421;51.412;5.432;2024-02-21T00:57:08;102073.56;;;7.52;100.00
74065;BME280;62421;51.412;5.432;2024-02-21T00:59:34;102070.22;;;7.47;100.00
74065;BME280;62421;51.412;5.432;2024-02-21T01:01:59;102076.47;;;7.46;100.00
74065;BME280;62421;51.412;5.432;2024-02-21T01:04:24;102093.44;;;7.45;100.00
74065;BME280;62421;51.412;5.432;2024-02-21T01:06:50;102092.44;;;7.47;100.00
74065;BME280;62421;51.412;5.432;2024-02-21T01:09:15;102094.13;;;7.50;100.00
74065;BME280;62421;51.412;5.432;2024-02-21T01:11:40;102079.84;;;7.51;100.00
74065;BME280;62421;51.412;5.432;2024-02-21T01:14:06;102090.53;;;7.51;100.00
74065;BME280;62421;51.412;5.432;2024-02-21T01:16:31;102084.38;;;7.49;100.00
74065;BME280;62421;51.412;5.432;2024-02-21T01:18:56;102069.22;;;7.49;100.00
74065;BME280;62421;51.412;5.432;2024-02-21T01:21:22;102061.19;;;7.49;100.00
74065;BME280;62421;51.412;5.432;2024-02-21T01:23:48;102054.91;;;7.50;100.00
74065;BME280;62421;51.412;5.432;2024-02-21T01:26:13;102042.47;;;7.49;100.00
74065;BME280;62421;51.412;5.432;2024-02-21T01:28:41;102033.75;;;7.44;100.00
74065;BME280;62421;51.412;5.432;2024-02-21T01:31:06;102033.88;;;7.41;100.00
74065;BME280;62421;51.412;5.432;2024-02-21T01:33:32;102048.28;;;7.37;100.00
74065;BME280;62421;51.412;5.432;2024-02-21T01:36:02;102060.81;;;7.35;100.00
74065;BME280;62421;51.412;5.432;2024-02-21T01:38:28;102051.94;;;7.34;100.00
74065;BME280;62421;51.412;5.432;2024-02-21T01:40:54;102049.06;;;7.41;100.00
74065;BME280;62421;51.412;5.432;2024-02-21T01:43:20;102049.88;;;7.43;100.00
74065;BME280;62421;51.412;5.432;2024-02-21T01:45:48;102038.13;;;7.47;100.00
74065;BME280;62421;51.412;5.432;2024-02-21T01:48:15;102035.31;;;7.50;100.00
74065;BME280;62421;51.412;5.432;2024-02-21T01:50:41;102040.63;;;7.51;100.00
74065;BME280;62421;51.412;5.432;2024-02-21T01:53:07;102035.22;;;7.53;100.00
74065;BME280;62421;51.412;5.432;2024-02-21T01:55:33;102037.94;;;7.51;100.00
74065;BME280;62421;51.412;5.432;2024-02-21T01:57:59;102037.94;;;7.51;100.00
74065;BME280;62421;51.412;5.432;2024-02-21T02:00:24;102039.63;;;7.54;100.00
74065;BME280;62421;51.412;5.432;2024-02-21T02:02:54;102044.94;;;7.55;100.00
74065;BME280;62421;51.412;5.432;2024-02-21T02:05:20;102049.22;;;7.59;100.00
74065;BME280;62421;51.412;5.432;2024-02-21T02:07:46;102046.47;;;7.61;100.00
74065;BME280;62421;51.412;5.432;2024-02-21T02:10:11;102037.53;;;7.62;100.00
74065;BME280;62421;51.412;5.432;2024-02-21T02:12:37;102033.00;;;7.64;100.00
74065;BME280;62421;51.412;5.432;2024-02-21T02:15:03;102028.53;;;7.65;100.00
74065;BME280;62421;51.412;5.432;2024-02-21T02:17:31;102020.44;;;7.66;100.00
74065;BME280;62421;51.412;5.432;2024-02-21T02:19:57;102030.25;;;7.66;100.00
74065;BME280;62421;51.412;5.432;2024-02-21T02:22:28;102021.38;;;7.65;100.00
74065;BME280;62421;51.412;5.432;2024-02-21T02:24:54;102015.97;;;7.67;100.00
74065;BME280;62421;51.412;5.432;2024-02-21T02:27:19;102008.09;;;7.64;100.00
74065;BME280;62421;51.412;5.432;2024-02-21T02:29:45;102006.28;;;7.64;100.00
74065;BME280;62421;51.412;5.432;2024-02-21T02:32:10;101996.50;;;7.63;100.00
74065;BME280;62421;51.412;5.432;2024-02-21T02:34:36;101986.69;;;7.64;100.00
74065;BME280;62421;51.412;5.432;2024-02-21T02:37:01;101979.59;;;7.63;100.00
74065;BME280;62421;51.412;5.432;2024-02-21T02:39:26;101976.16;;;7.59;100.00
74065;BME280;62421;51.412;5.432;2024-02-21T02:41:52;101986.94;;;7.57;100.00
74065;BME280;62421;51.412;5.432;2024-02-21T02:44:17;101989.66;;;7.56;100.00
74065;BME280;62421;51.412;5.432;2024-02-21T02:46:43;101979.84;;;7.56;100.00
74065;BME280;62421;51.412;5.432;2024-02-21T02:49:09;101981.69;;;7.54;100.00
74065;BME280;62421;51.412;5.432;2024-02-21T02:51:34;101977.22;;;7.55;100.00
74065;BME280;62421;51.412;5.432;2024-02-21T02:53:59;101963.97;;;7.52;100.00
74065;BME280;62421;51.412;5.432;2024-02-21T02:56:25;101963.94;;;7.53;100.00
74065;BME280;62421;51.412;5.432;2024-02-21T02:58:50;101970.13;;;7.54;100.00
74065;BME280;62421;51.412;5.432;2024-02-21T03:01:15;101960.31;;;7.54;100.00
74065;BME280;62421;51.412;5.432;2024-02-21T03:03:41;101949.69;;;7.53;100.00
74065;BME280;62421;51.412;5.432;2024-02-21T03:06:06;101947.03;;;7.53;100.00
74065;BME280;62421;51.412;5.432;2024-02-21T03:08:31;101947.03;;;7.53;100.00
74065;BME280;62421;51.412;5.432;2024-02-21T03:10:58;101949.69;;;7.53;100.00
74065;BME280;62421;51.412;5.432;2024-02-21T03:13:25;101950.56;;;7.53;100.00
74065;BME280;62421;51.412;5.432;2024-02-21T03:15:50;101955.81;;;7.55;100.00
74065;BME280;62421;51.412;5.432;2024-02-21T03:18:15;101957.59;;;7.56;100.00
74065;BME280;62421;51.412;5.432;2024-02-21T03:20:41;101953.00;;;7.59;100.00
74065;BME280;62421;51.412;5.432;2024-02-21T03:23:06;101946.69;;;7.61;100.00
74065;BME280;62421;51.412;5.432;2024-02-21T03:25:31;101938.69;;;7.61;100.00
74065;BME280;62421;51.412;5.432;2024-02-21T03:27:57;101924.50;;;7.58;100.00
74065;BME280;62421;51.412;5.432;2024-02-21T03:30:22;101926.25;;;7.59;100.00
74065;BME280;62421;51.412;5.432;2024-02-21T03:32:47;101923.66;;;7.58;100.00
74065;BME280;62421;51.412;5.432;2024-02-21T03:35:13;101920.97;;;7.58;100.00
74065;BME280;62421;51.412;5.432;2024-02-21T03:37:38;101921.84;;;7.58;100.00
74065;BME280;62421;51.412;5.432;2024-02-21T03:40:07;101909.34;;;7.59;100.00
74065;BME280;62421;51.412;5.432;2024-02-21T03:42:33;101905.75;;;7.60;100.00
74065;BME280;62421;51.412;5.432;2024-02-21T03:44:58;101904.94;;;7.58;100.00
74065;BME280;62421;51.412;5.432;2024-02-21T03:47:23;101902.22;;;7.59;100.00
74065;BME280;62421;51.412;5.432;2024-02-21T03:49:49;101904.88;;;7.59;100.00
74065;BME280;62421;51.412;5.432;2024-02-21T03:52:15;101890.63;;;7.59;100.00
74065;BME280;62421;51.412;5.432;2024-02-21T03:54:40;101892.47;;;7.57;100.00
74065;BME280;62421;51.412;5.432;2024-02-21T03:57:05;101888.94;;;7.56;100.00
74065;BME280;62421;51.412;5.432;2024-02-21T03:59:31;101896.28;;;7.51;100.00
74065;BME280;62421;51.412;5.432;2024-02-21T04:01:56;101890.16;;;7.49;100.00
74065;BME280;62421;51.412;5.432;2024-02-21T04:04:22;101881.38;;;7.46;100.00
74065;BME280;62421;51.412;5.432;2024-02-21T04:06:50;101887.72;;;7.43;100.00
74065;BME280;62421;51.412;5.432;2024-02-21T04:09:16;101884.28;;;7.39;100.00
74065;BME280;62421;51.412;5.432;2024-02-21T04:11:42;101887.03;;;7.38;100.00
74065;BME280;62421;51.412;5.432;2024-02-21T04:14:07;101888.81;;;7.37;100.00
74065;BME280;62421;51.412;5.432;2024-02-21T04:16:34;101889.72;;;7.38;100.00
74065;BME280;62421;51.412;5.432;2024-02-21T04:18:59;101881.75;;;7.36;100.00
74065;BME280;62421;51.412;5.432;2024-02-21T04:21:26;101884.47;;;7.35;100.00
74065;BME280;62421;51.412;5.432;2024-02-21T04:23:51;101891.50;;;7.37;100.00
74065;BME280;62421;51.412;5.432;2024-02-21T04:26:16;101892.38;;;7.38;100.00
74065;BME280;62421;51.412;5.432;2024-02-21T04:28:42;101881.63;;;7.39;100.00
74065;BME280;62421;51.412;5.432;2024-02-21T04:31:09;101880.66;;;7.42;100.00
74065;BME280;62421;51.412;5.432;2024-02-21T04:33:35;101888.66;;;7.42;100.00
74065;BME280;62421;51.412;5.432;2024-02-21T04:36:00;101881.50;;;7.43;100.00
74065;BME280;62421;51.412;5.432;2024-02-21T04:38:27;101886.00;;;7.42;100.00
74065;BME280;62421;51.412;5.432;2024-02-21T04:40:54;101885.91;;;7.44;100.00
74065;BME280;62421;51.412;5.432;2024-02-21T04:43:19;101888.56;;;7.44;100.00
74065;BME280;62421;51.412;5.432;2024-02-21T04:45:44;101885.00;;;7.45;100.00
74065;BME280;62421;51.412;5.432;2024-02-21T04:48:10;101885.84;;;7.45;100.00
74065;BME280;62421;51.412;5.432;2024-02-21T04:50:35;101877.84;;;7.45;100.00
74065;BME280;62421;51.412;5.432;2024-02-21T04:53:00;101884.00;;;7.47;100.00
74065;BME280;62421;51.412;5.432;2024-02-21T04:55:26;101872.44;;;7.47;100.00
74065;BME280;62421;51.412;5.432;2024-02-21T04:57:51;101874.09;;;7.49;100.00
74065;BME280;62421;51.412;5.432;2024-02-21T05:00:17;101866.94;;;7.50;100.00
74065;BME280;62421;51.412;5.432;2024-02-21T05:02:42;101877.59;;;7.51;100.00
74065;BME280;62421;51.412;5.432;2024-02-21T05:05:08;101869.56;;;7.51;100.00
74065;BME280;62421;51.412;5.432;2024-02-21T05:07:34;101866.91;;;7.51;100.00
74065;BME280;62421;51.412;5.432;2024-02-21T05:10:00;101859.78;;;7.50;100.00
74065;BME280;62421;51.412;5.432;2024-02-21T05:12:25;101858.88;;;7.51;100.00
74065;BME280;62421;51.412;5.432;2024-02-21T05:14:51;101855.34;;;7.51;100.00
74065;BME280;62421;51.412;5.432;2024-02-21T05:17:16;101860.59;;;7.52;100.00
74065;BME280;62421;51.412;5.432;2024-02-21T05:19:41;101855.34;;;7.51;100.00
74065;BME280;62421;51.412;5.432;2024-02-21T05:22:07;101853.53;;;7.51;100.00
74065;BME280;62421;51.412;5.432;2024-02-21T05:24:32;101843.75;;;7.50;100.00
74065;BME280;62421;51.412;5.432;2024-02-21T05:26:57;101840.22;;;7.50;100.00
74065;BME280;62421;51.412;5.432;2024-02-21T05:29:23;101837.56;;;7.50;100.00
74065;BME280;62421;51.412;5.432;2024-02-21T05:34:17;101822.38;;;7.50;100.00
74065;BME280;62421;51.412;5.432;2024-02-21T05:36:42;101814.38;;;7.50;100.00
74065;BME280;62421;51.412;5.432;2024-02-21T05:39:07;101817.03;;;7.50;100.00
74065;BME280;62421;51.412;5.432;2024-02-21T05:41:33;101821.53;;;7.50;100.00
74065;BME280;62421;51.412;5.432;2024-02-21T05:43:58;101817.94;;;7.51;100.00
74065;BME280;62421;51.412;5.432;2024-02-21T05:46:23;101809.91;;;7.51;100.00
74065;BME280;62421;51.412;5.432;2024-02-21T05:48:49;101814.38;;;7.50;100.00
74065;BME280;62421;51.412;5.432;2024-02-21T05:51:15;101805.44;;;7.51;100.00
74065;BME280;62421;51.412;5.432;2024-02-21T05:53:40;101801.00;;;7.50;100.00
74065;BME280;62421;51.412;5.432;2024-02-21T05:56:14;101803.66;;;7.50;100.00
74065;BME280;62421;51.412;5.432;2024-02-21T05:58:40;101798.28;;;7.52;100.00
74065;BME280;62421;51.412;5.432;2024-02-21T06:01:06;101792.06;;;7.51;100.00
74065;BME280;62421;51.412;5.432;2024-02-21T06:03:37;101794.75;;;7.51;100.00
74065;BME280;62421;51.412;5.432;2024-02-21T06:06:02;101791.19;;;7.51;100.00
74065;BME280;62421;51.412;5.432;2024-02-21T06:08:30;101786.78;;;7.50;100.00
74065;BME280;62421;51.412;5.432;2024-02-21T06:10:55;101769.88;;;7.49;100.00
74065;BME280;62421;51.412;5.432;2024-02-21T06:13:21;101770.75;;;7.50;100.00
74065;BME280;62421;51.412;5.432;2024-02-21T06:15:47;101753.94;;;7.46;100.00
74065;BME280;62421;51.412;5.432;2024-02-21T06:18:12;101764.72;;;7.45;100.00
74065;BME280;62421;51.412;5.432;2024-02-21T06:20:37;101746.09;;;7.43;100.00
74065;BME280;62421;51.412;5.432;2024-02-21T06:23:06;101763.84;;;7.44;100.00
74065;BME280;62421;51.412;5.432;2024-02-21T06:25:31;101757.72;;;7.42;100.00
74065;BME280;62421;51.412;5.432;2024-02-21T06:27:56;101755.91;;;7.43;100.00
74065;BME280;62421;51.412;5.432;2024-02-21T06:30:22;101759.50;;;7.42;100.00
74065;BME280;62421;51.412;5.432;2024-02-21T06:32:47;101755.91;;;7.43;100.00
74065;BME280;62421;51.412;5.432;2024-02-21T06:35:12;101754.09;;;7.43;100.00
74065;BME280;62421;51.412;5.432;2024-02-21T06:37:38;101759.38;;;7.45;100.00
74065;BME280;62421;51.412;5.432;2024-02-21T06:40:04;101765.66;;;7.44;100.00
74065;BME280;62421;51.412;5.432;2024-02-21T06:42:29;101762.13;;;7.43;100.00
74065;BME280;62421;51.412;5.432;2024-02-21T06:44:54;101757.63;;;7.44;100.00
74065;BME280;62421;51.412;5.432;2024-02-21T06:47:21;101761.25;;;7.43;100.00
74065;BME280;62421;51.412;5.432;2024-02-21T06:49:50;101762.13;;;7.43;100.00
74065;BME280;62421;51.412;5.432;2024-02-21T06:52:17;101762.13;;;7.43;100.00
74065;BME280;62421;51.412;5.432;2024-02-21T06:54:45;101763.84;;;7.44;100.00
74065;BME280;62421;51.412;5.432;2024-02-21T06:57:10;101774.53;;;7.44;100.00
74065;BME280;62421;51.412;5.432;2024-02-21T06:59:36;101770.06;;;7.45;100.00
74065;BME280;62421;51.412;5.432;2024-02-21T07:02:01;101764.72;;;7.45;100.00
74065;BME280;62421;51.412;5.432;2024-02-21T07:04:26;101771.78;;;7.46;100.00
74065;BME280;62421;51.412;5.432;2024-02-21T07:06:52;101763.78;;;7.46;100.00
74065;BME280;62421;51.412;5.432;2024-02-21T07:09:18;101752.97;;;7.49;100.00
74065;BME280;62421;51.412;5.432;2024-02-21T07:11:43;101752.09;;;7.48;100.00
74065;BME280;62421;51.412;5.432;2024-02-21T07:14:08;101750.31;;;7.49;100.00
74065;BME280;62421;51.412;5.432;2024-02-21T07:16:34;101751.13;;;7.51;100.00
74065;BME280;62421;51.412;5.432;2024-02-21T07:19:00;101746.56;;;7.53;100.00
74065;BME280;62421;51.412;5.432;2024-02-21T07:21:25;101735.78;;;7.54;100.00
74065;BME280;62421;51.412;5.432;2024-02-21T07:23:50;101745.56;;;7.55;100.00
74065;BME280;62421;51.412;5.432;2024-02-21T07:26:16;101741.88;;;7.58;100.00
74065;BME280;62421;51.412;5.432;2024-02-21T07:28:41;101745.38;;;7.60;100.00
74065;BME280;62421;51.412;5.432;2024-02-21T07:31:06;101747.97;;;7.62;100.00
74065;BME280;62421;51.412;5.432;2024-02-21T07:33:32;101731.84;;;7.63;100.00
74065;BME280;62421;51.412;5.432;2024-02-21T07:35:57;101723.78;;;7.65;100.00
74065;BME280;62421;51.412;5.432;2024-02-21T07:38:23;101720.09;;;7.67;100.00
74065;BME280;62421;51.412;5.432;2024-02-21T07:40:48;101718.22;;;7.69;100.00
74065;BME280;62421;51.412;5.432;2024-02-21T07:43:13;101716.28;;;7.73;100.00
74065;BME280;62421;51.412;5.432;2024-02-21T07:45:39;101711.75;;;7.75;100.00
74065;BME280;62421;51.412;5.432;2024-02-21T07:48:05;101701.84;;;7.77;100.00
74065;BME280;62421;51.412;5.432;2024-02-21T07:50:31;101691.00;;;7.80;100.00
74065;BME280;62421;51.412;5.432;2024-02-21T07:52:56;101681.06;;;7.84;100.00
74065;BME280;62421;51.412;5.432;2024-02-21T07:55:22;101676.44;;;7.87;100.00
74065;BME280;62421;51.412;5.432;2024-02-21T07:57:47;101677.16;;;7.91;100.00
74065;BME280;62421;51.412;5.432;2024-02-21T08:00:13;101669.88;;;7.94;100.00
74065;BME280;62421;51.412;5.432;2024-02-21T08:02:53;101671.47;;;7.98;100.00
74065;BME280;62421;51.412;5.432;2024-02-21T08:05:19;101682.16;;;7.98;100.00
74065;BME280;62421;51.412;5.432;2024-02-21T08:07:44;101675.00;;;7.99;100.00
74065;BME280;62421;51.412;5.432;2024-02-21T08:10:10;101671.31;;;8.02;100.00
74065;BME280;62421;51.412;5.432;2024-02-21T08:12:35;101672.97;;;8.04;100.00
74065;BME280;62421;51.412;5.432;2024-02-21T08:15:01;101662.13;;;8.07;100.00
74065;BME280;62421;51.412;5.432;2024-02-21T08:17:28;101656.78;;;8.07;100.00
74065;BME280;62421;51.412;5.432;2024-02-21T08:19:54;101647.75;;;8.10;100.00
74065;BME280;62421;51.412;5.432;2024-02-21T08:22:19;101658.28;;;8.13;100.00
74065;BME280;62421;51.412;5.432;2024-02-21T08:24:45;101651.06;;;8.15;100.00
74065;BME280;62421;51.412;5.432;2024-02-21T08:27:10;101643.78;;;8.18;100.00
74065;BME280;62421;51.412;5.432;2024-02-21T08:29:35;101634.59;;;8.24;100.00
74065;BME280;62421;51.412;5.432;2024-02-21T08:32:01;101632.63;;;8.28;100.00
74065;BME280;62421;51.412;5.432;2024-02-21T08:34:26;101635.00;;;8.34;100.00
74065;BME280;62421;51.412;5.432;2024-02-21T08:36:54;101629.59;;;8.35;100.00
74065;BME280;62421;51.412;5.432;2024-02-21T08:39:19;101628.56;;;8.38;100.00
74065;BME280;62421;51.412;5.432;2024-02-21T08:41:44;101625.91;;;8.38;100.00
74065;BME280;62421;51.412;5.432;2024-02-21T08:44:10;101619.75;;;8.36;100.00
74065;BME280;62421;51.412;5.432;2024-02-21T08:46:35;101620.69;;;8.35;100.00
74065;BME280;62421;51.412;5.432;2024-02-21T08:49:03;101615.56;;;8.30;100.00
74065;BME280;62421;51.412;5.432;2024-02-21T08:51:28;101607.63;;;8.29;100.00
74065;BME280;62421;51.412;5.432;2024-02-21T08:53:54;101605.88;;;8.28;100.00
74065;BME280;62421;51.412;5.432;2024-02-21T08:56:20;101596.25;;;8.24;100.00
74065;BME280;62421;51.412;5.432;2024-02-21T08:58:45;101591.69;;;8.26;100.00
74065;BME280;62421;51.412;5.432;2024-02-21T09:01:12;101587.00;;;8.31;100.00
74065;BME280;62421;51.412;5.432;2024-02-21T09:03:38;101592.78;;;8.40;100.00
74065;BME280;62421;51.412;5.432;2024-02-21T09:06:04;101579.28;;;8.44;100.00
74065;BME280;62421;51.412;5.432;2024-02-21T09:08:30;101577.38;;;8.46;100.00
74065;BME280;62421;51.412;5.432;2024-02-21T09:10:55;101585.31;;;8.47;100.00
74065;BME280;62421;51.412;5.432;2024-02-21T09:13:21;101579.09;;;8.47;100.00
74065;BME280;62421;51.412;5.432;2024-02-21T09:15:47;101569.50;;;8.43;100.00
74065;BME280;62421;51.412;5.432;2024-02-21T09:18:13;101573.22;;;8.38;100.00
74065;BME280;62421;51.412;5.432;2024-02-21T09:20:38;101561.03;;;8.33;100.00
74065;BME280;62421;51.412;5.432;2024-02-21T09:23:04;101563.78;;;8.31;100.00
74065;BME280;62421;51.412;5.432;2024-02-21T09:25:29;101571.81;;;8.31;100.00
74065;BME280;62421;51.412;5.432;2024-02-21T09:27:55;101569.19;;;8.30;100.00
74065;BME280;62421;51.412;5.432;2024-02-21T09:30:21;101569.19;;;8.30;100.00
74065;BME280;62421;51.412;5.432;2024-02-21T09:32:46;101564.88;;;8.27;100.00
74065;BME280;62421;51.412;5.432;2024-02-21T09:35:12;101563.06;;;8.28;100.00
74065;BME280;62421;51.412;5.432;2024-02-21T09:37:38;101560.31;;;8.29;100.00
74065;BME280;62421;51.412;5.432;2024-02-21T09:40:04;101546.88;;;8.31;100.00
74065;BME280;62421;51.412;5.432;2024-02-21T09:42:38;101549.44;;;8.32;100.00
74065;BME280;62421;51.412;5.432;2024-02-21T09:45:20;101534.03;;;8.37;100.00
74065;BME280;62421;51.412;5.432;2024-02-21T09:50:32;101503.53;;;8.42;100.00
74065;BME280;62421;51.412;5.432;2024-02-21T09:53:00;101503.31;;;8.46;100.00
74065;BME280;62421;51.412;5.432;2024-02-21T09:55:29;101493.22;;;8.51;100.00
74065;BME280;62421;51.412;5.432;2024-02-21T09:57:58;101494.66;;;8.58;100.00
74065;BME280;62421;51.412;5.432;2024-02-21T10:00:24;101491.50;;;8.68;100.00
74065;BME280;62421;51.412;5.432;2024-02-21T10:02:49;101482.97;;;8.77;100.00
74065;BME280;62421;51.412;5.432;2024-02-21T10:05:15;101473.69;;;8.84;100.00
74065;BME280;62421;51.412;5.432;2024-02-21T10:07:41;101473.34;;;8.90;100.00
74065;BME280;62421;51.412;5.432;2024-02-21T10:10:07;101457.81;;;8.97;100.00
74065;BME280;62421;51.412;5.432;2024-02-21T10:12:33;101465.44;;;9.05;100.00
74065;BME280;62421;51.412;5.432;2024-02-21T10:15:03;101466.75;;;9.13;100.00
74065;BME280;62421;51.412;5.432;2024-02-21T10:17:29;101444.94;;;9.21;100.00
74065;BME280;62421;51.412;5.432;2024-02-21T10:19:54;101440.94;;;9.28;100.00
74065;BME280;62421;51.412;5.432;2024-02-21T10:22:19;101438.72;;;9.36;100.00
74065;BME280;62421;51.412;5.432;2024-02-21T10:24:50;101417.97;;;9.40;100.00
74065;BME280;62421;51.412;5.432;2024-02-21T10:27:15;101416.75;;;9.46;100.00
74065;BME280;62421;51.412;5.432;2024-02-21T10:29:41;101409.22;;;9.52;100.00
74065;BME280;62421;51.412;5.432;2024-02-21T10:32:13;101392.00;;;9.56;100.00
74065;BME280;62421;51.412;5.432;2024-02-21T10:34:40;101385.44;;;9.62;100.00
74065;BME280;62421;51.412;5.432;2024-02-21T10:37:09;101367.25;;;9.67;100.00
74065;BME280;62421;51.412;5.432;2024-02-21T10:39:39;101361.53;;;9.73;100.00
74065;BME280;62421;51.412;5.432;2024-02-21T10:42:05;101342.50;;;9.78;100.00
74065;BME280;62421;51.412;5.432;2024-02-21T10:44:32;101326.91;;;9.84;100.00
74065;BME280;62421;51.412;5.432;2024-02-21T10:46:58;101327.50;;;9.90;100.00
74065;BME280;62421;51.412;5.432;2024-02-21T10:49:26;101338.81;;;9.95;100.00
74065;BME280;62421;51.412;5.432;2024-02-21T10:54:44;101323.41;;;9.98;100.00
74065;BME280;62421;51.412;5.432;2024-02-21T10:57:13;101328.94;;;9.95;100.00
74065;BME280;62421;51.412;5.432;2024-02-21T10:59:40;101335.16;;;9.96;100.00
74065;BME280;62421;51.412;5.432;2024-02-21T11:02:06;101340.72;;;9.93;100.00
74065;BME280;62421;51.412;5.432;2024-02-21T11:04:32;101340.81;;;9.91;100.00
74065;BME280;62421;51.412;5.432;2024-02-21T11:07:04;101338.31;;;9.88;100.00
74065;BME280;62421;51.412;5.432;2024-02-21T11:09:31;101336.69;;;9.86;100.00
74065;BME280;62421;51.412;5.432;2024-02-21T11:12:05;101325.06;;;9.85;100.00
74065;BME280;62421;51.412;5.432;2024-02-21T11:14:32;101341.28;;;9.83;100.00
74065;BME280;62421;51.412;5.432;2024-02-21T11:16:58;101322.31;;;9.87;100.00
74065;BME280;62421;51.412;5.432;2024-02-21T11:19:25;101310.63;;;9.88;100.00
74065;BME280;62421;51.412;5.432;2024-02-21T11:21:52;101301.63;;;9.89;100.00
74065;BME280;62421;51.412;5.432;2024-02-21T11:24:44;101298.56;;;9.95;100.00
74065;BME280;62421;51.412;5.432;2024-02-21T11:27:21;101296.31;;;10.03;100.00
74065;BME280;62421;51.412;5.432;2024-02-21T11:29:54;101287.50;;;10.15;100.00
74065;BME280;62421;51.412;5.432;2024-02-21T11:32:20;101254.53;;;10.28;100.00
74065;BME280;62421;51.412;5.432;2024-02-21T11:34:59;101258.69;;;10.48;100.00
74065;BME280;62421;51.412;5.432;2024-02-21T11:37:29;101260.41;;;10.63;100.00
74065;BME280;62421;51.412;5.432;2024-02-21T11:39:56;101261.72;;;10.70;100.00
74065;BME280;62421;51.412;5.432;2024-02-21T11:42:21;101250.78;;;10.73;100.00
74065;BME280;62421;51.412;5.432;2024-02-21T11:44:47;101260.56;;;10.74;100.00
74065;BME280;62421;51.412;5.432;2024-02-21T11:47:14;101256.44;;;10.69;100.00
74065;BME280;62421;51.412;5.432;2024-02-21T11:49:46;101242.84;;;10.57;100.00
74065;BME280;62421;51.412;5.432;2024-02-21T11:52:15;101244.31;;;10.49;100.00
74065;BME280;62421;51.412;5.432;2024-02-21T11:54:41;101229.81;;;10.51;100.00
74065;BME280;62421;51.412;5.432;2024-02-21T11:57:07;101195.38;;;10.58;100.00
74065;BME280;62421;51.412;5.432;2024-02-21T11:59:33;101203.31;;;10.74;100.00
74065;BME280;62421;51.412;5.432;2024-02-21T12:01:59;101192.19;;;10.80;100.00
74065;BME280;62421;51.412;5.432;2024-02-21T12:04:25;101176.28;;;10.90;100.00
74065;BME280;62421;51.412;5.432;2024-02-21T12:06:52;101180.00;;;11.01;100.00
74065;BME280;62421;51.412;5.432;2024-02-21T12:09:18;101168.81;;;11.07;100.00
74065;BME280;62421;51.412;5.432;2024-02-21T12:11:44;101181.09;;;11.12;100.00
74065;BME280;62421;51.412;5.432;2024-02-21T12:14:10;101156.19;;;11.22;100.00
74065;BME280;62421;51.412;5.432;2024-02-21T12:16:36;101159.97;;;11.33;100.00
74065;BME280;62421;51.412;5.432;2024-02-21T12:19:04;101134.50;;;11.38;100.00
74065;BME280;62421;51.412;5.432;2024-02-21T12:21:30;101135.88;;;11.44;100.00
74065;BME280;62421;51.412;5.432;2024-02-21T12:23:58;101120.94;;;11.40;100.00
74065;BME280;62421;51.412;5.432;2024-02-21T12:26:23;101111.47;;;11.34;100.00
74065;BME280;62421;51.412;5.432;2024-02-21T12:28:49;101121.56;;;11.31;100.00
74065;BME280;62421;51.412;5.432;2024-02-21T12:31:14;101116.44;;;11.27;100.00
74065;BME280;62421;51.412;5.432;2024-02-21T12:33:42;101113.94;;;11.24;100.00
74065;BME280;62421;51.412;5.432;2024-02-21T12:36:07;101111.25;;;11.24;100.00
74065;BME280;62421;51.412;5.432;2024-02-21T12:38:35;101091.47;;;11.25;100.00
74065;BME280;62421;51.412;5.432;2024-02-21T12:41:01;101085.03;;;11.28;100.00
74065;BME280;62421;51.412;5.432;2024-02-21T12:43:26;101073.50;;;11.26;100.00
74065;BME280;62421;51.412;5.432;2024-02-21T12:45:51;101073.75;;;11.23;100.00
74065;BME280;62421;51.412;5.432;2024-02-21T12:48:17;101066.09;;;11.17;100.00
74065;BME280;62421;51.412;5.432;2024-02-21T12:50:48;101058.34;;;11.12;100.00